KRWF/RWF METAR and TAF weather

Enter ICAO airport designator
Station Type Date Time Source
KRWF METAR 2020/10/29 16:53 UTC NOAA

KRWF 291653Z AUTO 03006KT 10SM OVC022 00/M07 A3019 RMK AO2 SLP236 T00001067


Station Type Date Time Source
KRWF Decoded METAR 2020/10/29 16:53 UTC NOAA

REDWOOD FALLS MUNICIPAL, MN, United States (KRWF) 44-33N 95-05W 311M
Oct 29, 2020 - 12:53 PM EDT / 2020.10.29 1653 UTC
Wind: from the NNE (030 degrees) at 7 MPH (6 KT):0
Visibility: 10 mile(s):0
Sky conditions: overcast
Temperature: 32.0 F (0.0 C)
Windchill: 24 F (-4 C):1
Dew Point: 19.9 F (-6.7 C)
Relative Humidity: 60%
Pressure (altimeter): 30.19 in. Hg (1022 hPa)
ob: KRWF 291653Z AUTO 03006KT 10SM OVC022 00/M07 A3019 RMK AO2 SLP236 T00001067
cycle: 17

Station Type Date Time Source
KRWF TAF 2020/10/29 16:42 UTC NOAA

TAF
AMD KRWF 291539Z 2916/3012 34008KT P6SM BKN025
FM291630 35005KT P6SM SCT040
FM292100 VRB03KT P6SM SCT120
FM300000 17003KT P6SM BKN120
FM300400 15005KT P6SM OVC035

Example: see airport list